KEVV/EVV METAR and TAF weather

Enter ICAO airport designator
Station Type Date Time Source
KEVV METAR 2022/06/25 22:54 UTC NOAA

KEVV 252254Z 16003KT 10SM CLR 33/17 A2997 RMK AO2 SLP142 T03280172 $


Station Type Date Time Source
KEVV Decoded METAR 2022/06/25 22:54 UTC NOAA

EVANSVILLE REGIONAL, IN, United States (KEVV) 38-02N 087-32W 117M
Jun 25, 2022 - 06:54 PM EDT / 2022.06.25 2254 UTC
Wind: from the SSE (160 degrees) at 3 MPH (3 KT):0
Visibility: 10 mile(s):0
Sky conditions: clear
Temperature: 91.0 F (32.8 C)
Dew Point: 63.0 F (17.2 C)
Relative Humidity: 39%
Pressure (altimeter): 29.97 in. Hg (1014 hPa)
ob: KEVV 252254Z 16003KT 10SM CLR 33/17 A2997 RMK AO2 SLP142 T03280172
cycle: 23

Station Type Date Time Source
KEVV TAF 2022/06/25 18:27 UTC NOAA

TAF KEVV 251725Z 2518/2618 17005KT P6SM FEW070
FM261400 30006KT P6SM VCSH BKN022

Example: see airport list